sensor_id;sensor_type;location;lat;lon;timestamp;temperature;humidity
24207;DHT22;12351;52.284;9.160;2024-01-30T00:00:51;9.10;99.90
24207;DHT22;12351;52.284;9.160;2024-01-30T00:03:38;9.10;99.90
24207;DHT22;12351;52.284;9.160;2024-01-30T00:06:26;9.10;99.90
24207;DHT22;12351;52.284;9.160;2024-01-30T00:09:14;9.10;99.90
24207;DHT22;12351;52.284;9.160;2024-01-30T00:12:01;9.00;99.90
24207;DHT22;12351;52.284;9.160;2024-01-30T00:14:48;9.00;99.90
24207;DHT22;12351;52.284;9.160;2024-01-30T00:17:35;9.00;99.90
24207;DHT22;12351;52.284;9.160;2024-01-30T00:20:22;9.10;99.90
24207;DHT22;12351;52.284;9.160;2024-01-30T00:23:09;9.10;99.90
24207;DHT22;12351;52.284;9.160;2024-01-30T00:25:56;9.10;99.90
24207;DHT22;12351;52.284;9.160;2024-01-30T00:28:44;9.00;99.90
24207;DHT22;12351;52.284;9.160;2024-01-30T00:31:31;9.00;99.90
24207;DHT22;12351;52.284;9.160;2024-01-30T00:34:19;9.00;99.90
24207;DHT22;12351;52.284;9.160;2024-01-30T00:37:06;9.00;99.90
24207;DHT22;12351;52.284;9.160;2024-01-30T00:39:53;9.00;99.90
24207;DHT22;12351;52.284;9.160;2024-01-30T00:42:41;9.00;99.90
24207;DHT22;12351;52.284;9.160;2024-01-30T00:45:28;9.00;99.90
24207;DHT22;12351;52.284;9.160;2024-01-30T00:48:15;9.00;99.90
24207;DHT22;12351;52.284;9.160;2024-01-30T00:51:03;9.00;99.90
24207;DHT22;12351;52.284;9.160;2024-01-30T00:53:50;9.00;99.90
24207;DHT22;12351;52.284;9.160;2024-01-30T00:56:37;9.00;99.90
24207;DHT22;12351;52.284;9.160;2024-01-30T00:59:25;9.00;99.90
24207;DHT22;12351;52.284;9.160;2024-01-30T01:02:12;9.00;99.90
24207;DHT22;12351;52.284;9.160;2024-01-30T01:05:01;9.00;99.90
24207;DHT22;12351;52.284;9.160;2024-01-30T01:07:49;9.00;99.90
24207;DHT22;12351;52.284;9.160;2024-01-30T01:10:36;8.90;99.90
24207;DHT22;12351;52.284;9.160;2024-01-30T01:13:23;9.00;99.90
24207;DHT22;12351;52.284;9.160;2024-01-30T01:16:10;8.90;99.90
24207;DHT22;12351;52.284;9.160;2024-01-30T01:18:57;8.90;99.90
24207;DHT22;12351;52.284;9.160;2024-01-30T01:21:45;9.00;99.90
24207;DHT22;12351;52.284;9.160;2024-01-30T01:24:32;8.90;99.90
24207;DHT22;12351;52.284;9.160;2024-01-30T01:27:20;8.90;99.90
24207;DHT22;12351;52.284;9.160;2024-01-30T01:30:09;8.90;99.90
24207;DHT22;12351;52.284;9.160;2024-01-30T01:32:56;8.90;99.90
24207;DHT22;12351;52.284;9.160;2024-01-30T01:35:44;8.90;99.90
24207;DHT22;12351;52.284;9.160;2024-01-30T01:38:31;8.90;99.90
24207;DHT22;12351;52.284;9.160;2024-01-30T01:41:19;8.90;99.90
24207;DHT22;12351;52.284;9.160;2024-01-30T01:44:05;8.90;99.90
24207;DHT22;12351;52.284;9.160;2024-01-30T01:46:53;8.90;99.90
24207;DHT22;12351;52.284;9.160;2024-01-30T01:49:41;8.90;99.90
24207;DHT22;12351;52.284;9.160;2024-01-30T01:52:29;8.90;99.90
24207;DHT22;12351;52.284;9.160;2024-01-30T01:55:17;8.80;99.90
24207;DHT22;12351;52.284;9.160;2024-01-30T01:58:11;8.80;99.90
24207;DHT22;12351;52.284;9.160;2024-01-30T02:00:59;8.80;99.90
24207;DHT22;12351;52.284;9.160;2024-01-30T02:03:47;8.80;99.90
24207;DHT22;12351;52.284;9.160;2024-01-30T02:06:35;8.80;99.90
24207;DHT22;12351;52.284;9.160;2024-01-30T02:09:22;8.80;99.90
24207;DHT22;12351;52.284;9.160;2024-01-30T02:12:09;8.80;99.90
24207;DHT22;12351;52.284;9.160;2024-01-30T02:14:57;8.80;99.90
24207;DHT22;12351;52.284;9.160;2024-01-30T02:17:44;8.80;99.90
24207;DHT22;12351;52.284;9.160;2024-01-30T02:20:34;8.80;99.90
24207;DHT22;12351;52.284;9.160;2024-01-30T02:23:24;8.80;99.90
24207;DHT22;12351;52.284;9.160;2024-01-30T02:26:13;8.80;99.90
24207;DHT22;12351;52.284;9.160;2024-01-30T02:29:00;8.80;99.90
24207;DHT22;12351;52.284;9.160;2024-01-30T02:31:47;8.80;99.90
24207;DHT22;12351;52.284;9.160;2024-01-30T02:34:34;8.80;99.90
24207;DHT22;12351;52.284;9.160;2024-01-30T02:37:21;8.80;99.90
24207;DHT22;12351;52.284;9.160;2024-01-30T02:40:08;8.70;99.90
24207;DHT22;12351;52.284;9.160;2024-01-30T02:42:55;8.70;99.90
24207;DHT22;12351;52.284;9.160;2024-01-30T02:45:43;8.70;99.90
24207;DHT22;12351;52.284;9.160;2024-01-30T02:48:30;8.70;99.90
24207;DHT22;12351;52.284;9.160;2024-01-30T02:51:17;8.70;99.90
24207;DHT22;12351;52.284;9.160;2024-01-30T02:54:04;8.70;99.90
24207;DHT22;12351;52.284;9.160;2024-01-30T02:56:51;8.70;99.90
24207;DHT22;12351;52.284;9.160;2024-01-30T02:59:40;8.70;99.90
24207;DHT22;12351;52.284;9.160;2024-01-30T03:02:27;8.70;99.90
24207;DHT22;12351;52.284;9.160;2024-01-30T03:05:14;8.60;99.90
24207;DHT22;12351;52.284;9.160;2024-01-30T03:08:01;8.60;99.90
24207;DHT22;12351;52.284;9.160;2024-01-30T03:10:49;8.60;99.90
24207;DHT22;12351;52.284;9.160;2024-01-30T03:13:36;8.60;99.90
24207;DHT22;12351;52.284;9.160;2024-01-30T03:16:24;8.60;99.90
24207;DHT22;12351;52.284;9.160;2024-01-30T03:19:11;8.60;99.90
24207;DHT22;12351;52.284;9.160;2024-01-30T03:21:58;8.50;99.90
24207;DHT22;12351;52.284;9.160;2024-01-30T03:24:46;8.50;99.90
24207;DHT22;12351;52.284;9.160;2024-01-30T03:27:33;8.50;99.90
24207;DHT22;12351;52.284;9.160;2024-01-30T03:30:21;8.50;99.90
24207;DHT22;12351;52.284;9.160;2024-01-30T03:33:08;8.50;99.90
24207;DHT22;12351;52.284;9.160;2024-01-30T03:35:55;8.50;99.90
24207;DHT22;12351;52.284;9.160;2024-01-30T03:38:43;8.50;99.90
24207;DHT22;12351;52.284;9.160;2024-01-30T03:41:30;8.50;99.90
24207;DHT22;12351;52.284;9.160;2024-01-30T03:44:18;8.50;99.90
24207;DHT22;12351;52.284;9.160;2024-01-30T03:47:05;8.50;99.90
24207;DHT22;12351;52.284;9.160;2024-01-30T03:49:52;8.50;99.90
24207;DHT22;12351;52.284;9.160;2024-01-30T03:52:39;8.50;99.90
24207;DHT22;12351;52.284;9.160;2024-01-30T03:55:26;8.40;99.90
24207;DHT22;12351;52.284;9.160;2024-01-30T03:58:14;8.40;99.90
24207;DHT22;12351;52.284;9.160;2024-01-30T04:01:01;8.40;99.90
24207;DHT22;12351;52.284;9.160;2024-01-30T04:03:48;8.40;99.90
24207;DHT22;12351;52.284;9.160;2024-01-30T04:06:35;8.40;99.90
24207;DHT22;12351;52.284;9.160;2024-01-30T04:09:23;8.40;99.90
24207;DHT22;12351;52.284;9.160;2024-01-30T04:12:11;8.40;99.90
24207;DHT22;12351;52.284;9.160;2024-01-30T04:14:59;8.40;99.90
24207;DHT22;12351;52.284;9.160;2024-01-30T04:17:45;8.40;99.90
24207;DHT22;12351;52.284;9.160;2024-01-30T04:20:33;8.40;99.90
24207;DHT22;12351;52.284;9.160;2024-01-30T04:23:20;8.30;99.90
24207;DHT22;12351;52.284;9.160;2024-01-30T04:26:07;8.30;99.90
24207;DHT22;12351;52.284;9.160;2024-01-30T04:28:54;8.30;99.90
24207;DHT22;12351;52.284;9.160;2024-01-30T04:31:42;8.30;99.90
24207;DHT22;12351;52.284;9.160;2024-01-30T04:34:29;8.30;99.90
24207;DHT22;12351;52.284;9.160;2024-01-30T04:37:16;8.30;99.90
24207;DHT22;12351;52.284;9.160;2024-01-30T04:40:04;8.30;99.90
24207;DHT22;12351;52.284;9.160;2024-01-30T04:42:51;8.30;99.90
24207;DHT22;12351;52.284;9.160;2024-01-30T04:45:38;8.30;99.90
24207;DHT22;12351;52.284;9.160;2024-01-30T04:48:25;8.30;99.90
24207;DHT22;12351;52.284;9.160;2024-01-30T04:51:13;8.30;99.90
24207;DHT22;12351;52.284;9.160;2024-01-30T04:54:00;8.30;99.90
24207;DHT22;12351;52.284;9.160;2024-01-30T04:56:47;8.30;99.90
24207;DHT22;12351;52.284;9.160;2024-01-30T04:59:35;8.30;99.90
24207;DHT22;12351;52.284;9.160;2024-01-30T05:02:23;8.30;99.90
24207;DHT22;12351;52.284;9.160;2024-01-30T05:05:10;8.30;99.90
24207;DHT22;12351;52.284;9.160;2024-01-30T05:07:57;8.30;99.90
24207;DHT22;12351;52.284;9.160;2024-01-30T05:10:45;8.30;99.90
24207;DHT22;12351;52.284;9.160;2024-01-30T05:13:32;8.30;99.90
24207;DHT22;12351;52.284;9.160;2024-01-30T05:16:19;8.30;99.90
24207;DHT22;12351;52.284;9.160;2024-01-30T05:19:06;8.30;99.90
24207;DHT22;12351;52.284;9.160;2024-01-30T05:21:53;8.30;99.90
24207;DHT22;12351;52.284;9.160;2024-01-30T05:24:41;8.30;99.90
24207;DHT22;12351;52.284;9.160;2024-01-30T05:27:28;8.30;99.90
24207;DHT22;12351;52.284;9.160;2024-01-30T05:30:16;8.30;99.90
24207;DHT22;12351;52.284;9.160;2024-01-30T05:33:03;8.30;99.90
24207;DHT22;12351;52.284;9.160;2024-01-30T05:35:51;8.30;99.90
24207;DHT22;12351;52.284;9.160;2024-01-30T05:38:39;8.30;99.90
24207;DHT22;12351;52.284;9.160;2024-01-30T05:41:27;8.30;99.90
24207;DHT22;12351;52.284;9.160;2024-01-30T05:44:14;8.30;99.90
24207;DHT22;12351;52.284;9.160;2024-01-30T05:47:00;8.30;99.90
24207;DHT22;12351;52.284;9.160;2024-01-30T05:49:48;8.30;99.90
24207;DHT22;12351;52.284;9.160;2024-01-30T05:52:35;8.30;99.90
24207;DHT22;12351;52.284;9.160;2024-01-30T05:55:22;8.30;99.90
24207;DHT22;12351;52.284;9.160;2024-01-30T05:58:09;8.30;99.90
24207;DHT22;12351;52.284;9.160;2024-01-30T06:01:00;8.30;99.90
24207;DHT22;12351;52.284;9.160;2024-01-30T06:03:45;8.30;99.90
24207;DHT22;12351;52.284;9.160;2024-01-30T06:06:33;8.30;99.90
24207;DHT22;12351;52.284;9.160;2024-01-30T06:09:20;8.30;99.90
24207;DHT22;12351;52.284;9.160;2024-01-30T06:12:07;8.30;99.90
24207;DHT22;12351;52.284;9.160;2024-01-30T06:14:55;8.30;99.90
24207;DHT22;12351;52.284;9.160;2024-01-30T06:17:43;8.20;99.90
24207;DHT22;12351;52.284;9.160;2024-01-30T06:20:30;8.30;99.90
24207;DHT22;12351;52.284;9.160;2024-01-30T06:23:18;8.30;99.90
24207;DHT22;12351;52.284;9.160;2024-01-30T06:26:07;8.20;99.90
24207;DHT22;12351;52.284;9.160;2024-01-30T06:28:54;8.30;99.90
24207;DHT22;12351;52.284;9.160;2024-01-30T06:31:41;8.20;99.90
24207;DHT22;12351;52.284;9.160;2024-01-30T06:34:28;8.20;99.90
24207;DHT22;12351;52.284;9.160;2024-01-30T06:37:16;8.30;99.90
24207;DHT22;12351;52.284;9.160;2024-01-30T06:42:51;8.30;99.90
24207;DHT22;12351;52.284;9.160;2024-01-30T06:45:38;8.30;99.90
24207;DHT22;12351;52.284;9.160;2024-01-30T06:48:26;8.30;99.90
24207;DHT22;12351;52.284;9.160;2024-01-30T06:51:13;8.30;99.90
24207;DHT22;12351;52.284;9.160;2024-01-30T06:54:00;8.30;99.90
24207;DHT22;12351;52.284;9.160;2024-01-30T06:56:48;8.30;99.90
24207;DHT22;12351;52.284;9.160;2024-01-30T06:59:35;8.30;99.90
24207;DHT22;12351;52.284;9.160;2024-01-30T07:02:22;8.30;99.90
24207;DHT22;12351;52.284;9.160;2024-01-30T07:05:10;8.40;99.90
24207;DHT22;12351;52.284;9.160;2024-01-30T07:07:57;8.30;99.90
24207;DHT22;12351;52.284;9.160;2024-01-30T07:10:44;8.30;99.90
24207;DHT22;12351;52.284;9.160;2024-01-30T07:13:32;8.30;99.90
24207;DHT22;12351;52.284;9.160;2024-01-30T07:16:19;8.30;99.90
24207;DHT22;12351;52.284;9.160;2024-01-30T07:19:06;8.30;99.90
24207;DHT22;12351;52.284;9.160;2024-01-30T07:21:55;8.30;99.90
24207;DHT22;12351;52.284;9.160;2024-01-30T07:24:43;8.30;99.90
24207;DHT22;12351;52.284;9.160;2024-01-30T07:27:31;8.30;99.90
24207;DHT22;12351;52.284;9.160;2024-01-30T07:30:19;8.30;99.90
24207;DHT22;12351;52.284;9.160;2024-01-30T07:33:06;8.30;99.90
24207;DHT22;12351;52.284;9.160;2024-01-30T07:35:54;8.30;99.90
24207;DHT22;12351;52.284;9.160;2024-01-30T07:38:42;8.30;99.90
24207;DHT22;12351;52.284;9.160;2024-01-30T07:41:29;8.30;99.90
24207;DHT22;12351;52.284;9.160;2024-01-30T07:44:16;8.30;99.90
24207;DHT22;12351;52.284;9.160;2024-01-30T07:47:04;8.30;99.90
24207;DHT22;12351;52.284;9.160;2024-01-30T07:49:52;8.30;99.90
24207;DHT22;12351;52.284;9.160;2024-01-30T07:52:39;8.30;99.90
24207;DHT22;12351;52.284;9.160;2024-01-30T07:55:26;8.40;99.90
24207;DHT22;12351;52.284;9.160;2024-01-30T07:58:15;8.40;99.90
24207;DHT22;12351;52.284;9.160;2024-01-30T08:01:02;8.50;99.90
24207;DHT22;12351;52.284;9.160;2024-01-30T08:03:51;8.50;99.90
24207;DHT22;12351;52.284;9.160;2024-01-30T08:06:38;8.50;99.90
24207;DHT22;12351;52.284;9.160;2024-01-30T08:09:25;8.60;99.90
24207;DHT22;12351;52.284;9.160;2024-01-30T08:12:12;8.60;99.90
24207;DHT22;12351;52.284;9.160;2024-01-30T08:14:59;8.60;99.90
24207;DHT22;12351;52.284;9.160;2024-01-30T08:17:46;8.60;99.90
24207;DHT22;12351;52.284;9.160;2024-01-30T08:20:34;8.60;99.90
24207;DHT22;12351;52.284;9.160;2024-01-30T08:23:22;8.70;99.90
24207;DHT22;12351;52.284;9.160;2024-01-30T08:26:09;8.80;99.90
24207;DHT22;12351;52.284;9.160;2024-01-30T08:28:56;8.80;99.90
24207;DHT22;12351;52.284;9.160;2024-01-30T08:31:44;8.90;99.90
24207;DHT22;12351;52.284;9.160;2024-01-30T08:34:32;9.00;99.90
24207;DHT22;12351;52.284;9.160;2024-01-30T08:37:19;9.00;99.90
24207;DHT22;12351;52.284;9.160;2024-01-30T08:40:07;9.10;99.90
24207;DHT22;12351;52.284;9.160;2024-01-30T08:42:54;9.10;99.90
24207;DHT22;12351;52.284;9.160;2024-01-30T08:45:42;9.10;99.90
24207;DHT22;12351;52.284;9.160;2024-01-30T08:48:29;9.10;99.90
24207;DHT22;12351;52.284;9.160;2024-01-30T08:51:17;9.10;99.90
24207;DHT22;12351;52.284;9.160;2024-01-30T08:54:04;9.10;99.90
24207;DHT22;12351;52.284;9.160;2024-01-30T08:56:51;9.10;99.90
24207;DHT22;12351;52.284;9.160;2024-01-30T08:59:39;9.10;99.90
24207;DHT22;12351;52.284;9.160;2024-01-30T09:02:26;9.10;99.90
24207;DHT22;12351;52.284;9.160;2024-01-30T09:05:13;9.20;99.90
24207;DHT22;12351;52.284;9.160;2024-01-30T09:08:00;9.20;99.90
24207;DHT22;12351;52.284;9.160;2024-01-30T09:10:48;9.30;99.90
24207;DHT22;12351;52.284;9.160;2024-01-30T09:13:36;9.30;99.90
24207;DHT22;12351;52.284;9.160;2024-01-30T09:16:23;9.40;99.90
24207;DHT22;12351;52.284;9.160;2024-01-30T09:19:10;9.50;99.90
24207;DHT22;12351;52.284;9.160;2024-01-30T09:21:58;9.60;99.90
24207;DHT22;12351;52.284;9.160;2024-01-30T09:24:45;9.70;99.90
24207;DHT22;12351;52.284;9.160;2024-01-30T09:27:31;9.70;99.90
24207;DHT22;12351;52.284;9.160;2024-01-30T09:30:19;9.80;99.90
24207;DHT22;12351;52.284;9.160;2024-01-30T09:33:07;9.90;99.90
24207;DHT22;12351;52.284;9.160;2024-01-30T09:35:53;9.90;99.90
24207;DHT22;12351;52.284;9.160;2024-01-30T09:38:41;10.00;99.90
24207;DHT22;12351;52.284;9.160;2024-01-30T09:41:31;10.00;99.90
24207;DHT22;12351;52.284;9.160;2024-01-30T09:44:20;10.00;99.90
24207;DHT22;12351;52.284;9.160;2024-01-30T09:47:09;10.10;99.90
24207;DHT22;12351;52.284;9.160;2024-01-30T09:49:57;10.10;99.90
24207;DHT22;12351;52.284;9.160;2024-01-30T09:52:46;10.20;99.90
24207;DHT22;12351;52.284;9.160;2024-01-30T09:55:35;10.10;99.90
24207;DHT22;12351;52.284;9.160;2024-01-30T09:58:23;10.10;99.90
24207;DHT22;12351;52.284;9.160;2024-01-30T10:01:10;10.20;99.90
24207;DHT22;12351;52.284;9.160;2024-01-30T10:03:57;10.30;99.90
24207;DHT22;12351;52.284;9.160;2024-01-30T10:06:45;10.30;99.90
24207;DHT22;12351;52.284;9.160;2024-01-30T10:09:33;10.40;99.90
24207;DHT22;12351;52.284;9.160;2024-01-30T10:12:20;10.40;99.90
24207;DHT22;12351;52.284;9.160;2024-01-30T10:15:07;10.50;99.90
24207;DHT22;12351;52.284;9.160;2024-01-30T10:17:55;10.60;99.90
24207;DHT22;12351;52.284;9.160;2024-01-30T10:20:44;10.60;99.90
24207;DHT22;12351;52.284;9.160;2024-01-30T10:23:31;10.70;99.90
24207;DHT22;12351;52.284;9.160;2024-01-30T10:26:19;10.70;99.90
24207;DHT22;12351;52.284;9.160;2024-01-30T10:29:06;10.70;99.90
24207;DHT22;12351;52.284;9.160;2024-01-30T10:34:44;10.80;99.90
24207;DHT22;12351;52.284;9.160;2024-01-30T10:37:31;10.80;99.90
24207;DHT22;12351;52.284;9.160;2024-01-30T10:40:20;10.80;99.90
24207;DHT22;12351;52.284;9.160;2024-01-30T10:43:10;10.90;99.90
24207;DHT22;12351;52.284;9.160;2024-01-30T10:46:00;10.90;99.90
24207;DHT22;12351;52.284;9.160;2024-01-30T10:48:50;10.90;99.90
24207;DHT22;12351;52.284;9.160;2024-01-30T10:51:37;10.90;99.90
24207;DHT22;12351;52.284;9.160;2024-01-30T10:54:25;10.90;99.90
24207;DHT22;12351;52.284;9.160;2024-01-30T10:57:13;10.90;99.90
24207;DHT22;12351;52.284;9.160;2024-01-30T11:00:05;10.90;99.90
24207;DHT22;12351;52.284;9.160;2024-01-30T11:02:55;10.90;99.90
24207;DHT22;12351;52.284;9.160;2024-01-30T11:05:41;10.90;99.90
24207;DHT22;12351;52.284;9.160;2024-01-30T11:08:31;11.00;99.90
24207;DHT22;12351;52.284;9.160;2024-01-30T11:11:17;11.00;99.90
24207;DHT22;12351;52.284;9.160;2024-01-30T11:14:04;11.00;99.90
24207;DHT22;12351;52.284;9.160;2024-01-30T11:16:52;11.00;99.90
24207;DHT22;12351;52.284;9.160;2024-01-30T11:19:41;11.10;99.90
24207;DHT22;12351;52.284;9.160;2024-01-30T11:22:30;11.10;99.90
24207;DHT22;12351;52.284;9.160;2024-01-30T11:25:19;11.20;99.90
24207;DHT22;12351;52.284;9.160;2024-01-30T11:28:12;11.20;99.90
24207;DHT22;12351;52.284;9.160;2024-01-30T11:33:46;11.30;99.90
24207;DHT22;12351;52.284;9.160;2024-01-30T11:36:34;11.40;99.90
24207;DHT22;12351;52.284;9.160;2024-01-30T11:39:23;11.40;99.90
24207;DHT22;12351;52.284;9.160;2024-01-30T11:42:11;11.40;99.90
24207;DHT22;12351;52.284;9.160;2024-01-30T11:45:00;11.50;99.90
24207;DHT22;12351;52.284;9.160;2024-01-30T11:47:48;11.50;99.90
24207;DHT22;12351;52.284;9.160;2024-01-30T11:50:38;11.60;99.90
24207;DHT22;12351;52.284;9.160;2024-01-30T11:53:26;11.60;99.90
24207;DHT22;12351;52.284;9.160;2024-01-30T11:56:14;11.60;99.90
24207;DHT22;12351;52.284;9.160;2024-01-30T11:59:01;11.60;99.90
24207;DHT22;12351;52.284;9.160;2024-01-30T12:01:48;11.70;99.90
24207;DHT22;12351;52.284;9.160;2024-01-30T12:04:35;11.70;99.90
24207;DHT22;12351;52.284;9.160;2024-01-30T12:07:23;11.70;99.90
24207;DHT22;12351;52.284;9.160;2024-01-30T12:10:10;11.70;99.90
24207;DHT22;12351;52.284;9.160;2024-01-30T12:12:59;11.80;99.90
24207;DHT22;12351;52.284;9.160;2024-01-30T12:15:46;11.80;99.90
24207;DHT22;12351;52.284;9.160;2024-01-30T12:18:35;11.80;99.90
24207;DHT22;12351;52.284;9.160;2024-01-30T12:21:22;11.80;99.90
24207;DHT22;12351;52.284;9.160;2024-01-30T12:24:10;11.80;99.90
24207;DHT22;12351;52.284;9.160;2024-01-30T12:26:58;11.80;99.90
24207;DHT22;12351;52.284;9.160;2024-01-30T12:29:46;11.90;99.90
24207;DHT22;12351;52.284;9.160;2024-01-30T12:32:36;11.90;99.90
24207;DHT22;12351;52.284;9.160;2024-01-30T12:35:23;11.90;99.90
24207;DHT22;12351;52.284;9.160;2024-01-30T12:38:11;12.00;99.90
24207;DHT22;12351;52.284;9.160;2024-01-30T12:40:59;12.00;99.90
24207;DHT22;12351;52.284;9.160;2024-01-30T12:43:46;12.00;99.90
24207;DHT22;12351;52.284;9.160;2024-01-30T12:46:35;12.10;99.90
24207;DHT22;12351;52.284;9.160;2024-01-30T12:49:22;12.10;99.90
24207;DHT22;12351;52.284;9.160;2024-01-30T12:52:10;12.20;99.90
24207;DHT22;12351;52.284;9.160;2024-01-30T12:54:58;12.20;99.90
24207;DHT22;12351;52.284;9.160;2024-01-30T12:57:45;12.20;99.90
24207;DHT22;12351;52.284;9.160;2024-01-30T13:00:33;12.20;99.90
24207;DHT22;12351;52.284;9.160;2024-01-30T13:03:20;12.20;99.90
24207;DHT22;12351;52.284;9.160;2024-01-30T13:06:07;12.20;99.90
24207;DHT22;12351;52.284;9.160;2024-01-30T13:08:54;12.20;99.90
24207;DHT22;12351;52.284;9.160;2024-01-30T13:11:42;12.20;99.90
24207;DHT22;12351;52.284;9.160;2024-01-30T13:14:29;12.20;99.90
24207;DHT22;12351;52.284;9.160;2024-01-30T13:17:16;12.20;99.90
24207;DHT22;12351;52.284;9.160;2024-01-30T13:20:03;12.20;99.90
24207;DHT22;12351;52.284;9.160;2024-01-30T13:22:51;12.20;99.90
24207;DHT22;12351;52.284;9.160;2024-01-30T13:25:38;12.20;99.90
24207;DHT22;12351;52.284;9.160;2024-01-30T13:28:25;12.20;99.90
24207;DHT22;12351;52.284;9.160;2024-01-30T13:31:14;12.20;99.90
24207;DHT22;12351;52.284;9.160;2024-01-30T13:34:01;12.20;99.90
24207;DHT22;12351;52.284;9.160;2024-01-30T13:36:48;12.20;99.90
24207;DHT22;12351;52.284;9.160;2024-01-30T13:39:35;12.20;99.90
24207;DHT22;12351;52.284;9.160;2024-01-30T13:42:22;12.20;99.90
24207;DHT22;12351;52.284;9.160;2024-01-30T13:45:09;12.20;99.90
24207;DHT22;12351;52.284;9.160;2024-01-30T13:47:56;12.20;99.90
24207;DHT22;12351;52.284;9.160;2024-01-30T13:50:43;12.20;99.90
24207;DHT22;12351;52.284;9.160;2024-01-30T13:53:32;12.20;99.90
24207;DHT22;12351;52.284;9.160;2024-01-30T13:56:20;12.20;99.90
24207;DHT22;12351;52.284;9.160;2024-01-30T13:59:07;12.20;99.90
24207;DHT22;12351;52.284;9.160;2024-01-30T14:01:55;12.10;99.90
24207;DHT22;12351;52.284;9.160;2024-01-30T14:04:42;12.10;99.90
24207;DHT22;12351;52.284;9.160;2024-01-30T14:07:29;12.10;99.90
24207;DHT22;12351;52.284;9.160;2024-01-30T14:10:19;12.20;99.90
24207;DHT22;12351;52.284;9.160;2024-01-30T14:13:06;12.10;99.90
24207;DHT22;12351;52.284;9.160;2024-01-30T14:15:55;12.10;99.90
24207;DHT22;12351;52.284;9.160;2024-01-30T14:18:42;12.10;99.90
24207;DHT22;12351;52.284;9.160;2024-01-30T14:21:30;12.10;99.90
24207;DHT22;12351;52.284;9.160;2024-01-30T14:24:17;12.10;99.90
24207;DHT22;12351;52.284;9.160;2024-01-30T14:27:04;12.10;99.90
24207;DHT22;12351;52.284;9.160;2024-01-30T14:29:52;12.10;99.90
24207;DHT22;12351;52.284;9.160;2024-01-30T14:32:39;12.10;99.90
24207;DHT22;12351;52.284;9.160;2024-01-30T14:35:28;12.10;99.90
24207;DHT22;12351;52.284;9.160;2024-01-30T14:38:15;12.10;99.90
24207;DHT22;12351;52.284;9.160;2024-01-30T14:41:03;12.10;99.90
24207;DHT22;12351;52.284;9.160;2024-01-30T14:43:51;12.10;99.90
24207;DHT22;12351;52.284;9.160;2024-01-30T14:46:39;12.10;99.90
24207;DHT22;12351;52.284;9.160;2024-01-30T14:49:27;12.10;99.90
24207;DHT22;12351;52.284;9.160;2024-01-30T14:52:14;12.10;99.90
24207;DHT22;12351;52.284;9.160;2024-01-30T14:55:01;12.10;99.90
24207;DHT22;12351;52.284;9.160;2024-01-30T14:57:39;12.10;99.90
24207;DHT22;12351;52.284;9.160;2024-01-30T15:00:28;12.10;99.90
24207;DHT22;12351;52.284;9.160;2024-01-30T15:03:15;12.10;99.90
24207;DHT22;12351;52.284;9.160;2024-01-30T15:06:03;12.00;99.90
24207;DHT22;12351;52.284;9.160;2024-01-30T15:08:52;12.00;99.90
24207;DHT22;12351;52.284;9.160;2024-01-30T15:11:40;12.00;99.90
24207;DHT22;12351;52.284;9.160;2024-01-30T15:14:28;12.00;99.90
24207;DHT22;12351;52.284;9.160;2024-01-30T15:17:15;12.00;99.90
24207;DHT22;12351;52.284;9.160;2024-01-30T15:20:02;12.00;99.90
24207;DHT22;12351;52.284;9.160;2024-01-30T15:22:50;12.00;99.90
24207;DHT22;12351;52.284;9.160;2024-01-30T15:25:37;12.00;99.90
24207;DHT22;12351;52.284;9.160;2024-01-30T15:31:14;12.00;99.90
24207;DHT22;12351;52.284;9.160;2024-01-30T15:34:04;12.00;99.90
24207;DHT22;12351;52.284;9.160;2024-01-30T15:36:51;11.90;99.90
24207;DHT22;12351;52.284;9.160;2024-01-30T15:39:38;11.90;99.90
24207;DHT22;12351;52.284;9.160;2024-01-30T15:42:26;11.90;99.90
24207;DHT22;12351;52.284;9.160;2024-01-30T15:45:13;11.90;99.90
24207;DHT22;12351;52.284;9.160;2024-01-30T15:48:01;11.90;99.90
24207;DHT22;12351;52.284;9.160;2024-01-30T15:50:48;11.90;99.90
24207;DHT22;12351;52.284;9.160;2024-01-30T15:53:36;11.90;99.90
24207;DHT22;12351;52.284;9.160;2024-01-30T15:56:23;11.80;99.90
24207;DHT22;12351;52.284;9.160;2024-01-30T15:59:11;11.80;99.90
24207;DHT22;12351;52.284;9.160;2024-01-30T16:01:59;11.80;99.90
24207;DHT22;12351;52.284;9.160;2024-01-30T16:04:47;11.80;99.90
24207;DHT22;12351;52.284;9.160;2024-01-30T16:07:35;11.80;99.90
24207;DHT22;12351;52.284;9.160;2024-01-30T16:10:23;11.70;99.90
24207;DHT22;12351;52.284;9.160;2024-01-30T16:13:10;11.70;99.90
24207;DHT22;12351;52.284;9.160;2024-01-30T16:15:57;11.70;99.90
24207;DHT22;12351;52.284;9.160;2024-01-30T16:18:45;11.70;99.90
24207;DHT22;12351;52.284;9.160;2024-01-30T16:21:32;11.70;99.90
24207;DHT22;12351;52.284;9.160;2024-01-30T16:24:19;11.60;99.90
24207;DHT22;12351;52.284;9.160;2024-01-30T16:27:09;11.60;99.90
24207;DHT22;12351;52.284;9.160;2024-01-30T16:29:57;11.60;99.90
24207;DHT22;12351;52.284;9.160;2024-01-30T16:32:45;11.60;99.90
24207;DHT22;12351;52.284;9.160;2024-01-30T16:35:32;11.60;99.90
24207;DHT22;12351;52.284;9.160;2024-01-30T16:38:20;11.60;99.90
24207;DHT22;12351;52.284;9.160;2024-01-30T16:41:07;11.50;99.90
24207;DHT22;12351;52.284;9.160;2024-01-30T16:43:55;11.50;99.90
24207;DHT22;12351;52.284;9.160;2024-01-30T16:46:43;11.60;99.90
24207;DHT22;12351;52.284;9.160;2024-01-30T16:49:30;11.50;99.90
24207;DHT22;12351;52.284;9.160;2024-01-30T16:52:17;11.50;99.90
24207;DHT22;12351;52.284;9.160;2024-01-30T16:55:06;11.50;99.90
24207;DHT22;12351;52.284;9.160;2024-01-30T16:57:53;11.50;99.90
24207;DHT22;12351;52.284;9.160;2024-01-30T17:00:40;11.50;99.90
24207;DHT22;12351;52.284;9.160;2024-01-30T17:03:28;11.50;99.90
24207;DHT22;12351;52.284;9.160;2024-01-30T17:06:15;11.50;99.90
24207;DHT22;12351;52.284;9.160;2024-01-30T17:09:02;11.40;99.90
24207;DHT22;12351;52.284;9.160;2024-01-30T17:11:50;11.40;99.90
24207;DHT22;12351;52.284;9.160;2024-01-30T17:14:37;11.40;99.90
24207;DHT22;12351;52.284;9.160;2024-01-30T17:17:26;11.40;99.90
24207;DHT22;12351;52.284;9.160;2024-01-30T17:20:13;11.40;99.90
24207;DHT22;12351;52.284;9.160;2024-01-30T17:23:01;11.40;99.90
24207;DHT22;12351;52.284;9.160;2024-01-30T17:25:50;11.40;99.90
24207;DHT22;12351;52.284;9.160;2024-01-30T17:28:37;11.40;99.90
24207;DHT22;12351;52.284;9.160;2024-01-30T17:31:25;11.40;99.90
24207;DHT22;12351;52.284;9.160;2024-01-30T17:34:12;11.40;99.90
24207;DHT22;12351;52.284;9.160;2024-01-30T17:36:58;11.40;99.90
24207;DHT22;12351;52.284;9.160;2024-01-30T17:39:46;11.40;99.90
24207;DHT22;12351;52.284;9.160;2024-01-30T17:42:34;11.30;99.90
24207;DHT22;12351;52.284;9.160;2024-01-30T17:45:21;11.30;99.90
24207;DHT22;12351;52.284;9.160;2024-01-30T17:48:08;11.30;99.90
24207;DHT22;12351;52.284;9.160;2024-01-30T17:50:56;11.30;99.90
24207;DHT22;12351;52.284;9.160;2024-01-30T17:53:44;11.30;99.90
24207;DHT22;12351;52.284;9.160;2024-01-30T17:56:31;11.30;99.90
24207;DHT22;12351;52.284;9.160;2024-01-30T17:59:18;11.20;99.90